sensor_id;sensor_type;location;lat;lon;timestamp;pressure;altitude;pressure_sealevel;temperature
70050;BMP180;57391;51.306;22.680;2022-08-21T00:01:26;99339.00;;;20.40
70050;BMP180;57391;51.306;22.680;2022-08-21T00:03:55;99335.20;;;20.40
70050;BMP180;57391;51.306;22.680;2022-08-21T00:06:23;99331.80;;;20.34
70050;BMP180;57391;51.306;22.680;2022-08-21T00:08:51;99329.20;;;20.30
70050;BMP180;57391;51.306;22.680;2022-08-21T00:11:18;99330.60;;;20.30
70050;BMP180;57391;51.306;22.680;2022-08-21T00:13:46;99330.40;;;20.30
70050;BMP180;57391;51.306;22.680;2022-08-21T00:16:13;99336.00;;;20.20
70050;BMP180;57391;51.306;22.680;2022-08-21T00:18:40;99337.40;;;20.20
70050;BMP180;57391;51.306;22.680;2022-08-21T00:21:07;99336.20;;;20.14
70050;BMP180;57391;51.306;22.680;2022-08-21T00:23:35;99336.20;;;20.10
70050;BMP180;57391;51.306;22.680;2022-08-21T00:26:03;99332.20;;;20.10
70050;BMP180;57391;51.306;22.680;2022-08-21T00:28:30;99335.60;;;20.10
70050;BMP180;57391;51.306;22.680;2022-08-21T00:30:58;99329.40;;;20.10
70050;BMP180;57391;51.306;22.680;2022-08-21T00:33:26;99326.80;;;20.00
70050;BMP180;57391;51.306;22.680;2022-08-21T00:35:53;99326.40;;;20.00
70050;BMP180;57391;51.306;22.680;2022-08-21T00:38:20;99323.00;;;20.00
70050;BMP180;57391;51.306;22.680;2022-08-21T00:40:56;99319.40;;;19.90
70050;BMP180;57391;51.306;22.680;2022-08-21T00:43:31;99316.40;;;19.90
70050;BMP180;57391;51.306;22.680;2022-08-21T00:45:59;99315.60;;;19.80
70050;BMP180;57391;51.306;22.680;2022-08-21T00:48:27;99312.60;;;19.80
70050;BMP180;57391;51.306;22.680;2022-08-21T00:51:11;99314.60;;;19.80
70050;BMP180;57391;51.306;22.680;2022-08-21T00:53:43;99315.80;;;19.72
70050;BMP180;57391;51.306;22.680;2022-08-21T00:56:13;99313.80;;;19.70
70050;BMP180;57391;51.306;22.680;2022-08-21T00:58:42;99308.60;;;19.60
70050;BMP180;57391;51.306;22.680;2022-08-21T01:01:09;99308.60;;;19.60
70050;BMP180;57391;51.306;22.680;2022-08-21T01:03:37;99303.00;;;19.56
70050;BMP180;57391;51.306;22.680;2022-08-21T01:06:05;99298.00;;;19.50
70050;BMP180;57391;51.306;22.680;2022-08-21T01:08:33;99295.00;;;19.50
70050;BMP180;57391;51.306;22.680;2022-08-21T01:11:02;99292.80;;;19.50
70050;BMP180;57391;51.306;22.680;2022-08-21T01:13:36;99295.40;;;19.50
70050;BMP180;57391;51.306;22.680;2022-08-21T01:16:09;99292.80;;;19.50
70050;BMP180;57391;51.306;22.680;2022-08-21T01:18:36;99291.60;;;19.40
70050;BMP180;57391;51.306;22.680;2022-08-21T01:21:07;99296.20;;;19.40
70050;BMP180;57391;51.306;22.680;2022-08-21T01:23:40;99289.00;;;19.40
70050;BMP180;57391;51.306;22.680;2022-08-21T01:26:08;99290.40;;;19.40
70050;BMP180;57391;51.306;22.680;2022-08-21T01:28:45;99297.40;;;19.40
70050;BMP180;57391;51.306;22.680;2022-08-21T01:31:17;99294.00;;;19.40
70050;BMP180;57391;51.306;22.680;2022-08-21T01:33:46;99293.40;;;19.40
70050;BMP180;57391;51.306;22.680;2022-08-21T01:36:13;99287.60;;;19.40
70050;BMP180;57391;51.306;22.680;2022-08-21T01:38:40;99289.80;;;19.30
70050;BMP180;57391;51.306;22.680;2022-08-21T01:41:07;99289.80;;;19.30
70050;BMP180;57391;51.306;22.680;2022-08-21T01:43:34;99287.60;;;19.34
70050;BMP180;57391;51.306;22.680;2022-08-21T01:46:04;99290.80;;;19.30
70050;BMP180;57391;51.306;22.680;2022-08-21T01:48:31;99285.00;;;19.30
70050;BMP180;57391;51.306;22.680;2022-08-21T01:50:58;99282.80;;;19.30
70050;BMP180;57391;51.306;22.680;2022-08-21T01:53:26;99283.00;;;19.30
70050;BMP180;57391;51.306;22.680;2022-08-21T01:55:53;99281.80;;;19.30
70050;BMP180;57391;51.306;22.680;2022-08-21T01:58:21;99283.80;;;19.30
70050;BMP180;57391;51.306;22.680;2022-08-21T02:00:48;99286.20;;;19.30
70050;BMP180;57391;51.306;22.680;2022-08-21T02:03:20;99289.60;;;19.28
70050;BMP180;57391;51.306;22.680;2022-08-21T02:05:47;99288.80;;;19.20
70050;BMP180;57391;51.306;22.680;2022-08-21T02:08:14;99287.00;;;19.20
70050;BMP180;57391;51.306;22.680;2022-08-21T02:10:41;99288.40;;;19.20
70050;BMP180;57391;51.306;22.680;2022-08-21T02:13:09;99287.80;;;19.20
70050;BMP180;57391;51.306;22.680;2022-08-21T02:15:36;99283.60;;;19.10
70050;BMP180;57391;51.306;22.680;2022-08-21T02:18:05;99286.80;;;19.10
70050;BMP180;57391;51.306;22.680;2022-08-21T02:20:39;99287.80;;;19.10
70050;BMP180;57391;51.306;22.680;2022-08-21T02:23:09;99282.80;;;19.00
70050;BMP180;57391;51.306;22.680;2022-08-21T02:25:37;99279.40;;;19.00
70050;BMP180;57391;51.306;22.680;2022-08-21T02:28:11;99277.20;;;18.90
70050;BMP180;57391;51.306;22.680;2022-08-21T02:30:44;99271.40;;;18.90
70050;BMP180;57391;51.306;22.680;2022-08-21T02:33:12;99264.40;;;18.88
70050;BMP180;57391;51.306;22.680;2022-08-21T02:35:42;99265.00;;;18.80
70050;BMP180;57391;51.306;22.680;2022-08-21T02:38:15;99261.60;;;18.80
70050;BMP180;57391;51.306;22.680;2022-08-21T02:40:46;99260.40;;;18.72
70050;BMP180;57391;51.306;22.680;2022-08-21T02:43:15;99261.60;;;18.70
70050;BMP180;57391;51.306;22.680;2022-08-21T02:45:44;99261.60;;;18.70
70050;BMP180;57391;51.306;22.680;2022-08-21T02:48:17;99261.80;;;18.70
70050;BMP180;57391;51.306;22.680;2022-08-21T02:50:48;99263.40;;;18.70
70050;BMP180;57391;51.306;22.680;2022-08-21T02:53:19;99254.40;;;18.60
70050;BMP180;57391;51.306;22.680;2022-08-21T02:55:50;99251.00;;;18.60
70050;BMP180;57391;51.306;22.680;2022-08-21T02:58:23;99244.00;;;18.60
70050;BMP180;57391;51.306;22.680;2022-08-21T03:00:50;99245.40;;;18.60
70050;BMP180;57391;51.306;22.680;2022-08-21T03:03:19;99242.40;;;18.52
70050;BMP180;57391;51.306;22.680;2022-08-21T03:05:48;99242.40;;;18.50
70050;BMP180;57391;51.306;22.680;2022-08-21T03:08:17;99243.00;;;18.50
70050;BMP180;57391;51.306;22.680;2022-08-21T03:10:50;99250.40;;;18.50
70050;BMP180;57391;51.306;22.680;2022-08-21T03:13:18;99252.60;;;18.40
70050;BMP180;57391;51.306;22.680;2022-08-21T03:15:49;99251.40;;;18.40
70050;BMP180;57391;51.306;22.680;2022-08-21T03:18:17;99250.80;;;18.40
70050;BMP180;57391;51.306;22.680;2022-08-21T03:20:44;99253.20;;;18.40
70050;BMP180;57391;51.306;22.680;2022-08-21T03:23:13;99257.00;;;18.40
70050;BMP180;57391;51.306;22.680;2022-08-21T03:25:41;99255.40;;;18.40
70050;BMP180;57391;51.306;22.680;2022-08-21T03:28:13;99254.00;;;18.38
70050;BMP180;57391;51.306;22.680;2022-08-21T03:30:43;99254.00;;;18.30
70050;BMP180;57391;51.306;22.680;2022-08-21T03:33:12;99252.20;;;18.30
70050;BMP180;57391;51.306;22.680;2022-08-21T03:35:41;99247.80;;;18.30
70050;BMP180;57391;51.306;22.680;2022-08-21T03:38:09;99249.40;;;18.30
70050;BMP180;57391;51.306;22.680;2022-08-21T03:40:36;99250.20;;;18.30
70050;BMP180;57391;51.306;22.680;2022-08-21T03:43:04;99249.20;;;18.30
70050;BMP180;57391;51.306;22.680;2022-08-21T03:45:31;99249.60;;;18.32
70050;BMP180;57391;51.306;22.680;2022-08-21T03:48:03;99246.20;;;18.40
70050;BMP180;57391;51.306;22.680;2022-08-21T03:50:36;99245.60;;;18.40
70050;BMP180;57391;51.306;22.680;2022-08-21T03:53:05;99245.40;;;18.40
70050;BMP180;57391;51.306;22.680;2022-08-21T03:55:32;99244.00;;;18.40
70050;BMP180;57391;51.306;22.680;2022-08-21T03:58:00;99247.60;;;18.48
70050;BMP180;57391;51.306;22.680;2022-08-21T04:00:27;99249.80;;;18.60
70050;BMP180;57391;51.306;22.680;2022-08-21T04:02:54;99257.20;;;18.80
70050;BMP180;57391;51.306;22.680;2022-08-21T04:05:22;99255.00;;;19.00
70050;BMP180;57391;51.306;22.680;2022-08-21T04:08:00;99253.60;;;19.20
70050;BMP180;57391;51.306;22.680;2022-08-21T04:10:31;99251.20;;;19.44
70050;BMP180;57391;51.306;22.680;2022-08-21T04:13:00;99249.60;;;19.76
70050;BMP180;57391;51.306;22.680;2022-08-21T04:15:28;99248.80;;;20.08
70050;BMP180;57391;51.306;22.680;2022-08-21T04:17:55;99248.80;;;20.40
70050;BMP180;57391;51.306;22.680;2022-08-21T04:20:23;99256.20;;;20.70
70050;BMP180;57391;51.306;22.680;2022-08-21T04:22:50;99256.40;;;20.94
70050;BMP180;57391;51.306;22.680;2022-08-21T04:25:21;99252.40;;;21.16
70050;BMP180;57391;51.306;22.680;2022-08-21T04:27:49;99246.80;;;21.40
70050;BMP180;57391;51.306;22.680;2022-08-21T04:30:18;99248.80;;;21.80
70050;BMP180;57391;51.306;22.680;2022-08-21T04:32:49;99257.80;;;22.00
70050;BMP180;57391;51.306;22.680;2022-08-21T04:35:22;99259.40;;;21.90
70050;BMP180;57391;51.306;22.680;2022-08-21T04:37:49;99259.80;;;21.60
70050;BMP180;57391;51.306;22.680;2022-08-21T04:40:18;99255.60;;;21.40
70050;BMP180;57391;51.306;22.680;2022-08-21T04:42:49;99259.40;;;21.20
70050;BMP180;57391;51.306;22.680;2022-08-21T04:45:45;99255.40;;;21.04
70050;BMP180;57391;51.306;22.680;2022-08-21T04:48:19;99259.80;;;20.90
70050;BMP180;57391;51.306;22.680;2022-08-21T04:56:05;99253.00;;;20.70
70050;BMP180;57391;51.306;22.680;2022-08-21T04:58:38;99253.80;;;20.66
70050;BMP180;57391;51.306;22.680;2022-08-21T05:01:13;99252.20;;;20.70
70050;BMP180;57391;51.306;22.680;2022-08-21T05:03:43;99247.80;;;20.90
70050;BMP180;57391;51.306;22.680;2022-08-21T05:06:14;99249.00;;;21.06
70050;BMP180;57391;51.306;22.680;2022-08-21T05:08:45;99258.20;;;21.20
70050;BMP180;57391;51.306;22.680;2022-08-21T05:11:14;99254.80;;;21.30
70050;BMP180;57391;51.306;22.680;2022-08-21T05:13:42;99250.20;;;21.54
70050;BMP180;57391;51.306;22.680;2022-08-21T05:16:09;99249.60;;;21.90
70050;BMP180;57391;51.306;22.680;2022-08-21T05:18:36;99249.20;;;22.26
70050;BMP180;57391;51.306;22.680;2022-08-21T05:21:03;99257.00;;;22.30
70050;BMP180;57391;51.306;22.680;2022-08-21T05:23:31;99252.40;;;22.00
70050;BMP180;57391;51.306;22.680;2022-08-21T05:25:59;99254.40;;;21.96
70050;BMP180;57391;51.306;22.680;2022-08-21T05:28:26;99253.20;;;22.00
70050;BMP180;57391;51.306;22.680;2022-08-21T05:30:53;99253.80;;;22.52
70050;BMP180;57391;51.306;22.680;2022-08-21T05:33:20;99253.80;;;23.10
70050;BMP180;57391;51.306;22.680;2022-08-21T05:35:51;99257.40;;;23.22
70050;BMP180;57391;51.306;22.680;2022-08-21T05:38:19;99254.80;;;23.10
70050;BMP180;57391;51.306;22.680;2022-08-21T05:40:46;99256.20;;;22.90
70050;BMP180;57391;51.306;22.680;2022-08-21T05:43:14;99259.80;;;22.86
70050;BMP180;57391;51.306;22.680;2022-08-21T05:45:42;99263.80;;;23.18
70050;BMP180;57391;51.306;22.680;2022-08-21T05:48:29;99259.20;;;23.84
70050;BMP180;57391;51.306;22.680;2022-08-21T05:50:57;99260.40;;;24.40
70050;BMP180;57391;51.306;22.680;2022-08-21T05:53:25;99256.80;;;24.60
70050;BMP180;57391;51.306;22.680;2022-08-21T05:55:52;99261.20;;;24.50
70050;BMP180;57391;51.306;22.680;2022-08-21T05:58:21;99259.40;;;24.20
70050;BMP180;57391;51.306;22.680;2022-08-21T06:00:51;99262.40;;;24.00
70050;BMP180;57391;51.306;22.680;2022-08-21T06:03:26;99261.60;;;23.80
70050;BMP180;57391;51.306;22.680;2022-08-21T06:05:54;99262.60;;;23.96
70050;BMP180;57391;51.306;22.680;2022-08-21T06:08:23;99263.20;;;24.54
70050;BMP180;57391;51.306;22.680;2022-08-21T06:10:53;99263.00;;;25.00
70050;BMP180;57391;51.306;22.680;2022-08-21T06:13:22;99262.00;;;25.48
70050;BMP180;57391;51.306;22.680;2022-08-21T06:15:50;99268.00;;;26.08
70050;BMP180;57391;51.306;22.680;2022-08-21T06:18:17;99270.40;;;26.40
70050;BMP180;57391;51.306;22.680;2022-08-21T06:20:44;99274.40;;;26.50
70050;BMP180;57391;51.306;22.680;2022-08-21T06:23:11;99273.60;;;26.40
70050;BMP180;57391;51.306;22.680;2022-08-21T06:25:39;99273.40;;;26.20
70050;BMP180;57391;51.306;22.680;2022-08-21T06:28:09;99271.60;;;26.20
70050;BMP180;57391;51.306;22.680;2022-08-21T06:30:39;99270.80;;;26.30
70050;BMP180;57391;51.306;22.680;2022-08-21T06:33:06;99270.80;;;26.56
70050;BMP180;57391;51.306;22.680;2022-08-21T06:35:34;99265.60;;;26.72
70050;BMP180;57391;51.306;22.680;2022-08-21T06:38:02;99269.40;;;26.88
70050;BMP180;57391;51.306;22.680;2022-08-21T06:40:31;99266.80;;;27.00
70050;BMP180;57391;51.306;22.680;2022-08-21T06:43:09;99270.40;;;27.28
70050;BMP180;57391;51.306;22.680;2022-08-21T06:45:37;99266.40;;;27.46
70050;BMP180;57391;51.306;22.680;2022-08-21T06:48:05;99271.60;;;27.68
70050;BMP180;57391;51.306;22.680;2022-08-21T06:50:35;99276.80;;;28.00
70050;BMP180;57391;51.306;22.680;2022-08-21T06:53:09;99278.20;;;28.30
70050;BMP180;57391;51.306;22.680;2022-08-21T06:55:38;99285.00;;;28.30
70050;BMP180;57391;51.306;22.680;2022-08-21T06:58:06;99286.60;;;27.72
70050;BMP180;57391;51.306;22.680;2022-08-21T07:00:35;99288.20;;;27.40
70050;BMP180;57391;51.306;22.680;2022-08-21T07:03:05;99289.00;;;27.36
70050;BMP180;57391;51.306;22.680;2022-08-21T07:05:32;99289.00;;;27.40
70050;BMP180;57391;51.306;22.680;2022-08-21T07:07:59;99285.20;;;27.16
70050;BMP180;57391;51.306;22.680;2022-08-21T07:10:27;99281.60;;;27.20
70050;BMP180;57391;51.306;22.680;2022-08-21T07:12:55;99278.60;;;27.30
70050;BMP180;57391;51.306;22.680;2022-08-21T07:15:22;99271.60;;;27.40
70050;BMP180;57391;51.306;22.680;2022-08-21T07:17:49;99272.00;;;27.88
70050;BMP180;57391;51.306;22.680;2022-08-21T07:20:16;99273.00;;;28.22
70050;BMP180;57391;51.306;22.680;2022-08-21T07:22:44;99272.20;;;28.20
70050;BMP180;57391;51.306;22.680;2022-08-21T07:25:11;99273.00;;;28.20
70050;BMP180;57391;51.306;22.680;2022-08-21T07:27:38;99276.20;;;28.18
70050;BMP180;57391;51.306;22.680;2022-08-21T07:30:06;99275.60;;;28.40
70050;BMP180;57391;51.306;22.680;2022-08-21T07:32:33;99273.60;;;28.60
70050;BMP180;57391;51.306;22.680;2022-08-21T07:35:01;99277.00;;;28.80
70050;BMP180;57391;51.306;22.680;2022-08-21T07:37:28;99277.80;;;28.94
70050;BMP180;57391;51.306;22.680;2022-08-21T07:39:55;99280.80;;;29.10
70050;BMP180;57391;51.306;22.680;2022-08-21T07:42:23;99282.60;;;29.10
70050;BMP180;57391;51.306;22.680;2022-08-21T07:44:50;99275.80;;;28.88
70050;BMP180;57391;51.306;22.680;2022-08-21T07:47:17;99277.20;;;28.70
70050;BMP180;57391;51.306;22.680;2022-08-21T07:49:44;99272.80;;;28.60
70050;BMP180;57391;51.306;22.680;2022-08-21T07:52:13;99278.60;;;28.60
70050;BMP180;57391;51.306;22.680;2022-08-21T07:54:40;99277.40;;;28.50
70050;BMP180;57391;51.306;22.680;2022-08-21T07:57:07;99276.00;;;28.30
70050;BMP180;57391;51.306;22.680;2022-08-21T07:59:34;99272.80;;;28.40
70050;BMP180;57391;51.306;22.680;2022-08-21T08:02:02;99274.80;;;28.50
70050;BMP180;57391;51.306;22.680;2022-08-21T08:04:29;99270.00;;;28.30
70050;BMP180;57391;51.306;22.680;2022-08-21T08:06:56;99271.40;;;28.30
70050;BMP180;57391;51.306;22.680;2022-08-21T08:09:23;99265.00;;;28.20
70050;BMP180;57391;51.306;22.680;2022-08-21T08:11:51;99259.00;;;28.30
70050;BMP180;57391;51.306;22.680;2022-08-21T08:14:18;99262.80;;;28.50
70050;BMP180;57391;51.306;22.680;2022-08-21T08:16:45;99257.80;;;28.60
70050;BMP180;57391;51.306;22.680;2022-08-21T08:19:12;99251.40;;;28.70
70050;BMP180;57391;51.306;22.680;2022-08-21T08:21:39;99252.80;;;28.92
70050;BMP180;57391;51.306;22.680;2022-08-21T08:24:07;99250.80;;;29.30
70050;BMP180;57391;51.306;22.680;2022-08-21T08:26:34;99241.20;;;29.44
70050;BMP180;57391;51.306;22.680;2022-08-21T08:29:01;99240.80;;;29.60
70050;BMP180;57391;51.306;22.680;2022-08-21T08:31:28;99246.00;;;29.80
70050;BMP180;57391;51.306;22.680;2022-08-21T08:33:55;99240.40;;;29.72
70050;BMP180;57391;51.306;22.680;2022-08-21T08:36:34;99242.80;;;29.90
70050;BMP180;57391;51.306;22.680;2022-08-21T08:39:05;99244.40;;;30.16
70050;BMP180;57391;51.306;22.680;2022-08-21T08:41:33;99242.20;;;30.46
70050;BMP180;57391;51.306;22.680;2022-08-21T08:44:05;99250.40;;;30.70
70050;BMP180;57391;51.306;22.680;2022-08-21T08:47:01;99248.80;;;30.58
70050;BMP180;57391;51.306;22.680;2022-08-21T08:49:43;99240.00;;;30.38
70050;BMP180;57391;51.306;22.680;2022-08-21T08:52:34;99240.60;;;30.26
70050;BMP180;57391;51.306;22.680;2022-08-21T08:55:36;99241.40;;;30.20
70050;BMP180;57391;51.306;22.680;2022-08-21T08:58:04;99237.80;;;30.40
70050;BMP180;57391;51.306;22.680;2022-08-21T09:00:33;99243.20;;;30.46
70050;BMP180;57391;51.306;22.680;2022-08-21T09:03:02;99245.40;;;30.20
70050;BMP180;57391;51.306;22.680;2022-08-21T09:05:57;99244.80;;;29.80
70050;BMP180;57391;51.306;22.680;2022-08-21T09:08:49;99246.80;;;29.70
70050;BMP180;57391;51.306;22.680;2022-08-21T09:15:06;99246.80;;;30.04
70050;BMP180;57391;51.306;22.680;2022-08-21T09:20:46;99245.20;;;30.12
70050;BMP180;57391;51.306;22.680;2022-08-21T09:26:20;99242.80;;;29.70
70050;BMP180;57391;51.306;22.680;2022-08-21T09:28:57;99241.80;;;29.62
70050;BMP180;57391;51.306;22.680;2022-08-21T09:31:33;99240.60;;;29.50
70050;BMP180;57391;51.306;22.680;2022-08-21T09:34:08;99235.80;;;29.30
70050;BMP180;57391;51.306;22.680;2022-08-21T09:36:49;99234.60;;;29.28
70050;BMP180;57391;51.306;22.680;2022-08-21T09:39:43;99236.20;;;29.50
70050;BMP180;57391;51.306;22.680;2022-08-21T09:42:10;99235.40;;;29.40
70050;BMP180;57391;51.306;22.680;2022-08-21T09:44:40;99229.40;;;29.40
70050;BMP180;57391;51.306;22.680;2022-08-21T09:47:11;99230.60;;;29.70
70050;BMP180;57391;51.306;22.680;2022-08-21T09:49:43;99234.80;;;30.00
70050;BMP180;57391;51.306;22.680;2022-08-21T09:52:22;99235.00;;;30.10
70050;BMP180;57391;51.306;22.680;2022-08-21T09:54:54;99235.40;;;30.02
70050;BMP180;57391;51.306;22.680;2022-08-21T09:57:28;99229.60;;;30.10
70050;BMP180;57391;51.306;22.680;2022-08-21T10:00:24;99225.80;;;30.20
70050;BMP180;57391;51.306;22.680;2022-08-21T10:02:52;99226.00;;;30.40
70050;BMP180;57391;51.306;22.680;2022-08-21T10:05:23;99229.20;;;30.40
70050;BMP180;57391;51.306;22.680;2022-08-21T10:07:52;99227.00;;;30.20
70050;BMP180;57391;51.306;22.680;2022-08-21T10:10:31;99227.60;;;30.30
70050;BMP180;57391;51.306;22.680;2022-08-21T10:13:36;99229.60;;;30.26
70050;BMP180;57391;51.306;22.680;2022-08-21T10:27:52;99214.60;;;30.60
70050;BMP180;57391;51.306;22.680;2022-08-21T10:30:36;99213.60;;;30.60
70050;BMP180;57391;51.306;22.680;2022-08-21T10:39:27;99212.80;;;31.00
70050;BMP180;57391;51.306;22.680;2022-08-21T10:47:37;99210.60;;;31.50
70050;BMP180;57391;51.306;22.680;2022-08-21T10:50:33;99213.40;;;31.50
70050;BMP180;57391;51.306;22.680;2022-08-21T10:58:51;99209.80;;;30.90
70050;BMP180;57391;51.306;22.680;2022-08-21T11:01:45;99210.40;;;30.90
70050;BMP180;57391;51.306;22.680;2022-08-21T11:04:37;99207.60;;;30.80
70050;BMP180;57391;51.306;22.680;2022-08-21T11:07:20;99209.40;;;30.90
70050;BMP180;57391;51.306;22.680;2022-08-21T11:09:50;99208.40;;;30.90
70050;BMP180;57391;51.306;22.680;2022-08-21T11:12:35;99209.40;;;31.00
70050;BMP180;57391;51.306;22.680;2022-08-21T11:15:32;99199.40;;;31.02
70050;BMP180;57391;51.306;22.680;2022-08-21T11:18:23;99202.40;;;31.30
70050;BMP180;57391;51.306;22.680;2022-08-21T11:29:38;99196.80;;;30.92
70050;BMP180;57391;51.306;22.680;2022-08-21T11:38:34;99195.20;;;30.80
70050;BMP180;57391;51.306;22.680;2022-08-21T11:41:25;99197.20;;;31.10
70050;BMP180;57391;51.306;22.680;2022-08-21T11:44:22;99198.20;;;31.30
70050;BMP180;57391;51.306;22.680;2022-08-21T11:47:11;99198.00;;;31.52
70050;BMP180;57391;51.306;22.680;2022-08-21T11:50:02;99196.60;;;31.70
70050;BMP180;57391;51.306;22.680;2022-08-21T11:55:33;99191.00;;;31.50
70050;BMP180;57391;51.306;22.680;2022-08-21T12:00:50;99194.80;;;31.50
70050;BMP180;57391;51.306;22.680;2022-08-21T12:03:35;99191.60;;;31.50
70050;BMP180;57391;51.306;22.680;2022-08-21T12:06:12;99193.00;;;31.30
70050;BMP180;57391;51.306;22.680;2022-08-21T12:08:45;99187.40;;;31.20
70050;BMP180;57391;51.306;22.680;2022-08-21T12:13:59;99185.80;;;31.10
70050;BMP180;57391;51.306;22.680;2022-08-21T12:16:42;99191.60;;;31.20
70050;BMP180;57391;51.306;22.680;2022-08-21T12:22:13;99189.00;;;31.10
70050;BMP180;57391;51.306;22.680;2022-08-21T12:24:50;99181.60;;;31.00
70050;BMP180;57391;51.306;22.680;2022-08-21T12:27:26;99188.40;;;31.10
70050;BMP180;57391;51.306;22.680;2022-08-21T12:30:03;99183.20;;;30.90
70050;BMP180;57391;51.306;22.680;2022-08-21T12:32:53;99185.60;;;30.74
70050;BMP180;57391;51.306;22.680;2022-08-21T12:35:31;99194.80;;;30.60
70050;BMP180;57391;51.306;22.680;2022-08-21T12:38:09;99185.40;;;30.32
70050;BMP180;57391;51.306;22.680;2022-08-21T12:40:44;99188.40;;;30.32
70050;BMP180;57391;51.306;22.680;2022-08-21T12:43:24;99191.40;;;30.24
70050;BMP180;57391;51.306;22.680;2022-08-21T12:45:52;99189.60;;;30.10
70050;BMP180;57391;51.306;22.680;2022-08-21T12:48:31;99186.80;;;30.10
70050;BMP180;57391;51.306;22.680;2022-08-21T12:51:13;99186.20;;;30.20
70050;BMP180;57391;51.306;22.680;2022-08-21T12:53:53;99187.40;;;30.34
70050;BMP180;57391;51.306;22.680;2022-08-21T12:56:33;99188.80;;;30.40
70050;BMP180;57391;51.306;22.680;2022-08-21T12:59:05;99186.60;;;30.22
70050;BMP180;57391;51.306;22.680;2022-08-21T13:01:36;99188.00;;;30.10
70050;BMP180;57391;51.306;22.680;2022-08-21T13:04:18;99187.80;;;30.18
70050;BMP180;57391;51.306;22.680;2022-08-21T13:06:53;99182.00;;;30.20
70050;BMP180;57391;51.306;22.680;2022-08-21T13:09:29;99184.80;;;30.10
70050;BMP180;57391;51.306;22.680;2022-08-21T13:11:59;99178.00;;;30.20
70050;BMP180;57391;51.306;22.680;2022-08-21T13:14:41;99176.60;;;30.40
70050;BMP180;57391;51.306;22.680;2022-08-21T13:17:11;99179.40;;;30.40
70050;BMP180;57391;51.306;22.680;2022-08-21T13:19:38;99180.20;;;30.32
70050;BMP180;57391;51.306;22.680;2022-08-21T13:22:14;99172.20;;;30.00
70050;BMP180;57391;51.306;22.680;2022-08-21T13:24:41;99173.60;;;29.82
70050;BMP180;57391;51.306;22.680;2022-08-21T13:27:25;99174.60;;;29.70
70050;BMP180;57391;51.306;22.680;2022-08-21T13:30:18;99165.20;;;29.40
70050;BMP180;57391;51.306;22.680;2022-08-21T13:32:51;99166.20;;;29.30
70050;BMP180;57391;51.306;22.680;2022-08-21T13:35:47;99167.40;;;29.20
70050;BMP180;57391;51.306;22.680;2022-08-21T13:38:19;99173.20;;;29.20
70050;BMP180;57391;51.306;22.680;2022-08-21T13:40:59;99175.60;;;29.20
70050;BMP180;57391;51.306;22.680;2022-08-21T13:43:34;99172.00;;;29.20
70050;BMP180;57391;51.306;22.680;2022-08-21T13:46:10;99173.00;;;29.10
70050;BMP180;57391;51.306;22.680;2022-08-21T13:48:40;99169.40;;;29.00
70050;BMP180;57391;51.306;22.680;2022-08-21T13:51:09;99171.20;;;29.00
70050;BMP180;57391;51.306;22.680;2022-08-21T13:53:48;99168.40;;;28.92
70050;BMP180;57391;51.306;22.680;2022-08-21T13:56:41;99167.20;;;28.90
70050;BMP180;57391;51.306;22.680;2022-08-21T13:59:09;99169.00;;;28.90
70050;BMP180;57391;51.306;22.680;2022-08-21T14:02:16;99170.40;;;28.80
70050;BMP180;57391;51.306;22.680;2022-08-21T14:04:55;99169.00;;;28.70
70050;BMP180;57391;51.306;22.680;2022-08-21T14:07:35;99166.20;;;28.70
70050;BMP180;57391;51.306;22.680;2022-08-21T14:10:26;99164.60;;;28.74
70050;BMP180;57391;51.306;22.680;2022-08-21T14:13:01;99162.80;;;28.90
70050;BMP180;57391;51.306;22.680;2022-08-21T14:15:34;99165.00;;;28.90
70050;BMP180;57391;51.306;22.680;2022-08-21T14:18:17;99162.80;;;28.90
70050;BMP180;57391;51.306;22.680;2022-08-21T14:20:45;99163.00;;;28.96
70050;BMP180;57391;51.306;22.680;2022-08-21T14:23:26;99166.00;;;29.00
70050;BMP180;57391;51.306;22.680;2022-08-21T14:26:00;99174.00;;;29.00
70050;BMP180;57391;51.306;22.680;2022-08-21T14:28:33;99169.20;;;29.10
70050;BMP180;57391;51.306;22.680;2022-08-21T14:31:20;99169.60;;;29.10
70050;BMP180;57391;51.306;22.680;2022-08-21T14:33:48;99165.80;;;29.20
70050;BMP180;57391;51.306;22.680;2022-08-21T14:36:15;99164.20;;;29.20
70050;BMP180;57391;51.306;22.680;2022-08-21T14:38:42;99161.40;;;29.10
70050;BMP180;57391;51.306;22.680;2022-08-21T14:41:24;99169.60;;;29.04
70050;BMP180;57391;51.306;22.680;2022-08-21T14:43:53;99171.40;;;29.00
70050;BMP180;57391;51.306;22.680;2022-08-21T14:46:27;99173.60;;;28.84
70050;BMP180;57391;51.306;22.680;2022-08-21T14:48:55;99172.00;;;28.60
70050;BMP180;57391;51.306;22.680;2022-08-21T14:51:23;99171.40;;;28.48
70050;BMP180;57391;51.306;22.680;2022-08-21T14:54:10;99173.20;;;28.30
70050;BMP180;57391;51.306;22.680;2022-08-21T14:56:37;99182.80;;;28.30
70050;BMP180;57391;51.306;22.680;2022-08-21T14:59:07;99184.20;;;28.30
70050;BMP180;57391;51.306;22.680;2022-08-21T15:01:38;99181.80;;;28.36
70050;BMP180;57391;51.306;22.680;2022-08-21T15:04:05;99185.40;;;28.40
70050;BMP180;57391;51.306;22.680;2022-08-21T15:06:33;99184.40;;;28.40
70050;BMP180;57391;51.306;22.680;2022-08-21T15:09:00;99185.80;;;28.20
70050;BMP180;57391;51.306;22.680;2022-08-21T15:11:29;99184.80;;;28.18
70050;BMP180;57391;51.306;22.680;2022-08-21T15:14:01;99189.80;;;28.10
70050;BMP180;57391;51.306;22.680;2022-08-21T15:16:30;99187.80;;;28.00
70050;BMP180;57391;51.306;22.680;2022-08-21T15:18:58;99187.00;;;27.90
70050;BMP180;57391;51.306;22.680;2022-08-21T15:21:25;99192.60;;;27.80
70050;BMP180;57391;51.306;22.680;2022-08-21T15:23:52;99198.40;;;27.80
70050;BMP180;57391;51.306;22.680;2022-08-21T15:26:22;99201.00;;;27.70
70050;BMP180;57391;51.306;22.680;2022-08-21T15:28:50;99195.40;;;27.54
70050;BMP180;57391;51.306;22.680;2022-08-21T15:31:17;99201.80;;;27.50
70050;BMP180;57391;51.306;22.680;2022-08-21T15:33:44;99200.60;;;27.48
70050;BMP180;57391;51.306;22.680;2022-08-21T15:36:12;99201.60;;;27.30